Plain View, Iowa
Current Conditions -  °F | °C
As of 2:52 AM on Friday 31 Oct 2014 (Local Time) from KDVN Reporting Station
Overcast Overcast  
Wind Chill: 33°   Ceiling: 4900
Heat Index: 43°   Visibility: 10mi
Dew Point: 26°   Wind: 26mph
Humidity: 51%   Direction: 340°NNW
Pressure: 30.15"   Gusts: 32mph
Location:  41.6175°N, 90.7599°W
Report Text: KDVN 310752Z AUTO 34023G28KT 10SM OVC049 06/M03 A3015 RMK AO2 PK WND 34028/0751 SLP213 T00611033 TSNO
Loading
Personal Weather Stations






























Interactive Weather Map
Tropical Storm Tracking
New forecast layout! Learn more

10-Day Weather Forecast

Advertisements
Track Severe Weather on mobile